Time;durP1;ratioP1;P1;durP2;ratioP2;P2;SDS_P1;SDS_P2;PMS_P1;PMS_P2;Temp;Humidity;BMP_temperature;BMP_pressure;BME280_temperature;BME280_humidity;BME280_pressure;Samples;Min_cycle;Max_cycle;Signal;HPM_P1;HPM_P2
2021/01/26 00:00:32;;;;;;;52.00;28.98;;;;;;;-0.33;100.00;97923.53;2079538;28;20242;-71
2021/01/26 00:01:33;;;;;;;55.97;31.27;;;;;;;-0.33;100.00;97905.97;2079608;28;20223;-73
2021/01/26 00:02:34;;;;;;;52.97;31.23;;;;;;;-0.37;100.00;97917.19;2079828;28;20726;-73
2021/01/26 00:03:35;;;;;;;46.40;31.30;;;;;;;-0.31;100.00;97918.81;2080617;28;20238;-75
2021/01/26 00:04:36;;;;;;;58.00;32.33;;;;;;;-0.35;100.00;97909.84;2080457;28;20629;-74
2021/01/26 00:05:37;;;;;;;47.77;30.63;;;;;;;-0.35;100.00;97915.91;2078998;28;20235;-72
2021/01/26 00:06:38;;;;;;;50.70;31.67;;;;;;;-0.37;100.00;97917.19;2071808;28;20627;-74
2021/01/26 00:07:41;;;;;;;54.30;32.57;;;;;;;-0.36;100.00;97914.31;2079738;28;20293;-74
2021/01/26 00:08:42;;;;;;;54.50;31.80;;;;;;;-0.35;100.00;97920.34;2079842;28;20270;-74
2021/01/26 00:09:45;;;;;;;51.60;32.00;;;;;;;-0.42;100.00;97919.81;2080442;28;20227;-74
2021/01/26 00:10:46;;;;;;;52.80;30.23;;;;;;;-0.44;100.00;97920.03;2080406;28;20450;-74
2021/01/26 00:11:47;;;;;;;54.67;32.70;;;;;;;-0.46;100.00;97923.94;2080515;28;20223;-74
2021/01/26 00:12:48;;;;;;;53.03;31.27;;;;;;;-0.46;100.00;97909.00;2079677;28;20609;-74
2021/01/26 00:13:49;;;;;;;55.37;31.57;;;;;;;-0.34;100.00;97924.56;2079934;28;20576;-74
2021/01/26 00:14:50;;;;;;;50.13;30.77;;;;;;;-0.48;100.00;97907.69;2080523;28;20713;-74
2021/01/26 00:15:51;;;;;;;48.33;30.97;;;;;;;-0.37;100.00;97925.06;2079448;28;20655;-74
2021/01/26 00:16:52;;;;;;;53.85;30.92;;;;;;;-0.43;100.00;97923.47;2079378;28;20581;-75
2021/01/26 00:17:55;;;;;;;55.87;31.70;;;;;;;-0.50;100.00;97922.88;2080251;28;20285;-75
2021/01/26 00:18:55;;;;;;;55.90;32.58;;;;;;;-0.39;100.00;97935.00;2080282;28;20220;-74
2021/01/26 00:19:57;;;;;;;51.50;31.43;;;;;;;-0.42;100.00;97935.53;2079503;28;20220;-74
2021/01/26 00:20:57;;;;;;;59.15;32.63;;;;;;;-0.44;100.00;97934.97;2079489;28;20239;-75
2021/01/26 00:21:59;;;;;;;61.80;33.20;;;;;;;-0.43;100.00;97929.50;2079596;28;20230;-74
2021/01/26 00:23:01;;;;;;;63.78;31.73;;;;;;;-0.41;100.00;97931.84;2079830;28;20251;-74
2021/01/26 00:24:03;;;;;;;55.53;32.45;;;;;;;-0.39;100.00;97929.75;2079646;28;20698;-74
2021/01/26 00:25:04;;;;;;;48.17;30.63;;;;;;;-0.45;100.00;97934.16;2080477;28;20310;-74
2021/01/26 00:26:06;;;;;;;56.15;30.95;;;;;;;-0.40;100.00;97947.31;2080286;28;20539;-74
2021/01/26 00:27:06;;;;;;;52.22;31.80;;;;;;;-0.45;100.00;97939.41;2079255;28;20230;-75
2021/01/26 00:28:10;;;;;;;59.57;33.30;;;;;;;-0.53;100.00;97928.59;2071045;28;20235;-74
2021/01/26 00:29:11;;;;;;;52.15;31.73;;;;;;;-0.45;100.00;97938.63;2079735;28;20233;-74
2021/01/26 00:30:17;;;;;;;54.00;32.28;;;;;;;-0.43;100.00;97933.94;2080333;28;20233;-74
2021/01/26 00:31:17;;;;;;;51.25;31.52;;;;;;;-0.45;100.00;97930.75;2079768;28;20227;-74
2021/01/26 00:32:19;;;;;;;52.93;30.80;;;;;;;-0.44;100.00;97950.69;2079567;28;20355;-74
2021/01/26 00:33:21;;;;;;;53.78;30.25;;;;;;;-0.46;100.00;97945.69;2080047;28;20227;-75
2021/01/26 00:34:22;;;;;;;52.22;32.10;;;;;;;-0.47;100.00;97935.47;2079992;28;20223;-75
2021/01/26 00:35:23;;;;;;;54.85;31.35;;;;;;;-0.48;100.00;97936.50;2080333;28;20223;-75
2021/01/26 00:36:25;;;;;;;53.10;31.75;;;;;;;-0.51;100.00;97940.44;2080287;28;20227;-74
2021/01/26 00:37:26;;;;;;;52.08;31.70;;;;;;;-0.51;100.00;97942.28;2079553;28;20227;-74
2021/01/26 00:38:28;;;;;;;56.90;31.33;;;;;;;-0.54;100.00;97937.50;2079603;28;20239;-74
2021/01/26 00:39:29;;;;;;;55.80;32.55;;;;;;;-0.50;100.00;97938.59;2079726;28;20453;-75
2021/01/26 00:40:31;;;;;;;56.50;31.90;;;;;;;-0.51;100.00;97943.06;2079480;28;20223;-75
2021/01/26 00:41:32;;;;;;;52.13;31.30;;;;;;;-0.52;100.00;97945.91;2079443;28;20295;-75
2021/01/26 00:42:33;;;;;;;50.03;31.23;;;;;;;-0.54;100.00;97943.53;2079429;28;20219;-74
2021/01/26 00:43:34;;;;;;;55.10;30.63;;;;;;;-0.54;100.00;97948.00;2079626;28;20219;-74
2021/01/26 00:44:35;;;;;;;59.30;30.73;;;;;;;-0.65;100.00;97934.03;2079691;28;20314;-75
2021/01/26 00:45:36;;;;;;;49.42;28.90;;;;;;;-0.54;100.00;97958.47;2080517;28;20251;-75
2021/01/26 00:46:38;;;;;;;53.90;30.33;;;;;;;-0.48;100.00;97936.50;2078934;28;20298;-75
2021/01/26 00:47:38;;;;;;;52.42;29.27;;;;;;;-0.51;100.00;97958.78;2071231;28;20310;-74
2021/01/26 00:48:40;;;;;;;55.63;30.17;;;;;;;-0.45;100.00;97949.09;2079641;28;20238;-75
2021/01/26 00:49:41;;;;;;;55.30;30.75;;;;;;;-0.54;100.00;97953.22;2079376;28;20227;-74
2021/01/26 00:50:45;;;;;;;53.92;30.15;;;;;;;-0.50;100.00;97949.09;2079438;28;20797;-75
2021/01/26 00:51:45;;;;;;;55.58;30.60;;;;;;;-0.44;100.00;97951.47;2079513;28;20700;-74
2021/01/26 00:52:47;;;;;;;51.70;30.20;;;;;;;-0.52;100.00;97951.97;2079469;28;20668;-74
2021/01/26 00:53:55;;;;;;;55.65;30.70;;;;;;;-0.53;100.00;97954.81;2079018;28;20254;-74
2021/01/26 00:54:57;;;;;;;58.10;30.42;;;;;;;-0.49;100.00;97958.53;2079511;28;20310;-75
2021/01/26 00:55:58;;;;;;;56.53;30.35;;;;;;;-0.58;100.00;97947.72;2079262;28;20223;-74
2021/01/26 00:56:59;;;;;;;51.53;30.33;;;;;;;-0.57;100.00;97955.31;2096048;28;20283;-74
2021/01/26 00:58:01;;;;;;;49.70;29.77;;;;;;;-0.61;100.00;97959.50;2087375;28;20831;-74
2021/01/26 00:59:03;;;;;;;46.85;29.30;;;;;;;-0.59;100.00;97961.84;2071624;28;20224;-75
2021/01/26 01:00:06;;;;;;;54.63;31.15;;;;;;;-0.64;100.00;97962.59;2071559;28;20302;-74
2021/01/26 01:01:08;;;;;;;54.70;32.30;;;;;;;-0.72;100.00;97949.97;2071299;28;20220;-74
2021/01/26 01:02:10;;;;;;;52.72;31.67;;;;;;;-0.71;100.00;97959.38;2071682;28;20223;-74
2021/01/26 01:03:12;;;;;;;52.73;31.53;;;;;;;-0.72;100.00;97955.19;2079623;28;20306;-75
2021/01/26 01:04:12;;;;;;;52.88;30.55;;;;;;;-0.64;100.00;97967.03;2080316;28;20732;-75
2021/01/26 01:05:15;;;;;;;54.47;31.83;;;;;;;-0.60;100.00;97970.75;2080361;28;20620;-75
2021/01/26 01:06:16;;;;;;;54.58;30.80;;;;;;;-0.62;100.00;97963.13;2080226;28;20227;-74
2021/01/26 01:07:19;;;;;;;57.85;33.20;;;;;;;-0.63;100.00;97968.63;2079580;28;20231;-75
2021/01/26 01:08:20;;;;;;;50.95;31.05;;;;;;;-0.72;100.00;97963.06;2079344;28;20223;-74
2021/01/26 01:09:22;;;;;;;50.47;31.43;;;;;;;-0.70;100.00;97963.59;2079409;28;20224;-75
2021/01/26 01:10:26;;;;;;;57.83;31.30;;;;;;;-0.80;100.00;97955.66;2086822;28;20219;-74
2021/01/26 01:11:29;;;;;;;48.92;29.42;;;;;;;-0.70;100.00;97962.78;2087282;28;20230;-74
2021/01/26 01:12:30;;;;;;;55.22;31.23;;;;;;;-0.76;100.00;97961.97;2079533;28;20220;-75
2021/01/26 01:13:31;;;;;;;51.70;31.07;;;;;;;-0.71;100.00;97962.00;2079472;28;20262;-74
2021/01/26 01:14:32;;;;;;;54.75;30.45;;;;;;;-0.67;100.00;97975.41;2079362;28;20737;-75
2021/01/26 01:15:33;;;;;;;54.33;30.27;;;;;;;-0.69;100.00;97967.03;2079354;28;20579;-75
2021/01/26 01:16:34;;;;;;;49.60;30.90;;;;;;;-0.68;100.00;97972.00;2079571;28;20219;-75
2021/01/26 01:17:35;;;;;;;60.17;31.70;;;;;;;-0.72;100.00;97968.28;2079837;28;20219;-75
2021/01/26 01:18:38;;;;;;;53.15;30.75;;;;;;;-0.65;100.00;97968.09;2079450;28;20288;-74
2021/01/26 01:19:39;;;;;;;51.05;29.10;;;;;;;-0.67;100.00;97976.19;2078851;28;20671;-74
2021/01/26 01:20:40;;;;;;;54.87;31.03;;;;;;;-0.67;100.00;97986.69;2080340;28;20231;-74
2021/01/26 01:21:41;;;;;;;55.08;31.55;;;;;;;-0.71;100.00;97969.88;2079160;28;20318;-75
2021/01/26 01:22:43;;;;;;;55.57;31.10;;;;;;;-0.68;100.00;97969.38;2079458;28;20223;-75
2021/01/26 01:23:43;;;;;;;53.45;31.70;;;;;;;-0.80;100.00;97965.34;2079367;28;20294;-75
2021/01/26 01:24:46;;;;;;;56.33;32.17;;;;;;;-0.78;100.00;97968.50;2079233;28;20219;-74
2021/01/26 01:25:47;;;;;;;51.03;29.80;;;;;;;-0.72;100.00;97972.75;2080051;28;20670;-74
2021/01/26 01:26:49;;;;;;;51.85;30.10;;;;;;;-0.78;100.00;97963.25;2080238;28;20223;-74
2021/01/26 01:27:50;;;;;;;51.75;30.42;;;;;;;-0.76;100.00;97967.22;2080175;28;20281;-74
2021/01/26 01:28:51;;;;;;;54.78;31.13;;;;;;;-0.73;100.00;97965.91;2080127;28;20581;-75
2021/01/26 01:29:52;;;;;;;53.95;31.67;;;;;;;-0.80;100.00;97970.56;2079704;28;20227;-75
2021/01/26 01:30:56;;;;;;;52.20;31.07;;;;;;;-0.96;100.00;97961.78;2080222;28;20277;-74
2021/01/26 01:31:56;;;;;;;55.95;31.10;;;;;;;-0.94;100.00;97959.72;2079229;28;21771;-74
2021/01/26 01:32:58;;;;;;;54.73;31.73;;;;;;;-0.88;100.00;97969.19;2080300;28;20242;-75
2021/01/26 01:33:58;;;;;;;59.33;31.48;;;;;;;-0.89;100.00;97962.38;2080948;28;20666;-74
2021/01/26 01:35:00;;;;;;;52.77;30.20;;;;;;;-0.96;100.00;97959.97;2081113;28;20243;-74
2021/01/26 01:36:00;;;;;;;48.53;29.02;;;;;;;-0.96;100.00;97969.63;2081774;28;20243;-76
2021/01/26 01:37:02;;;;;;;49.13;29.53;;;;;;;-0.93;100.00;97966.53;2080833;28;20274;-75
2021/01/26 01:38:03;;;;;;;50.13;30.30;;;;;;;-1.00;100.00;97971.19;2081021;28;20227;-74
2021/01/26 01:39:05;;;;;;;48.80;29.58;;;;;;;-1.09;100.00;97955.16;2080873;28;20247;-74
2021/01/26 01:40:09;;;;;;;52.25;30.35;;;;;;;-1.04;100.00;97970.91;2080838;28;20229;-74
2021/01/26 01:41:10;;;;;;;51.90;30.27;;;;;;;-1.06;100.00;97961.69;2080830;28;20224;-73
2021/01/26 01:42:12;;;;;;;51.08;29.58;;;;;;;-1.15;100.00;97959.53;2088986;28;20238;-74
2021/01/26 01:43:13;;;;;;;53.08;30.00;;;;;;;-1.06;100.00;97970.34;2081592;28;20219;-74
2021/01/26 01:44:14;;;;;;;50.20;30.85;;;;;;;-1.11;100.00;97980.00;2081052;28;20227;-74
2021/01/26 01:45:16;;;;;;;54.00;30.60;;;;;;;-1.14;100.00;97965.53;2080953;28;20322;-75
2021/01/26 01:46:20;;;;;;;48.85;30.33;;;;;;;-1.09;100.00;97972.66;2081603;28;20561;-76
2021/01/26 01:47:25;;;;;;;50.72;30.85;;;;;;;-1.17;100.00;97963.44;2081493;28;20219;-73
2021/01/26 01:48:27;;;;;;;56.92;30.80;;;;;;;-1.15;100.00;97956.13;2080195;28;20234;-73
2021/01/26 01:49:31;;;;;;;50.47;29.83;;;;;;;-1.03;100.00;97971.69;2080917;28;20227;-74
2021/01/26 01:50:34;;;;;;;55.13;30.50;;;;;;;-1.04;100.00;97976.13;2081548;28;20219;-73
2021/01/26 01:51:38;;;;;;;51.78;30.30;;;;;;;-1.01;100.00;97965.16;2081793;28;20227;-75
2021/01/26 01:52:39;;;;;;;48.78;29.73;;;;;;;-1.07;100.00;97960.91;2080361;28;20314;-73
2021/01/26 01:53:44;;;;;;;50.85;31.48;;;;;;;-1.19;100.00;97953.22;2072452;28;20808;-73
2021/01/26 01:54:50;;;;;;;54.80;31.05;;;;;;;-1.16;100.00;97967.63;2073309;28;20220;-73
2021/01/26 01:55:55;;;;;;;58.83;30.98;;;;;;;-1.24;100.00;97961.00;2080703;28;20226;-73
2021/01/26 01:57:01;;;;;;;51.55;30.00;;;;;;;-1.14;100.00;97971.56;2080983;28;20216;-73
2021/01/26 01:58:05;;;;;;;50.35;29.50;;;;;;;-1.09;100.00;97972.66;2080466;28;20227;-73
2021/01/26 01:59:08;;;;;;;51.22;30.02;;;;;;;-1.06;100.00;97974.78;2081183;28;20247;-73
2021/01/26 02:00:12;;;;;;;48.22;29.80;;;;;;;-1.10;100.00;97971.09;2080363;28;20230;-74
2021/01/26 02:01:18;;;;;;;58.05;31.27;;;;;;;-1.10;100.00;97973.72;2080541;28;20669;-73
2021/01/26 02:02:20;;;;;;;49.53;30.75;;;;;;;-1.11;100.00;97972.13;2080876;28;20224;-73
2021/01/26 02:03:24;;;;;;;50.72;30.85;;;;;;;-1.12;100.00;97971.34;2081606;28;20268;-74
2021/01/26 02:04:25;;;;;;;50.25;30.25;;;;;;;-1.15;100.00;97972.63;2081082;28;20307;-74
2021/01/26 02:05:26;;;;;;;51.45;29.75;;;;;;;-1.16;100.00;97978.88;2080604;28;20231;-74
2021/01/26 02:06:31;;;;;;;51.20;29.63;;;;;;;-1.15;100.00;97975.22;2080622;28;20239;-74
2021/01/26 02:07:33;;;;;;;48.72;29.80;;;;;;;-1.22;100.00;97956.31;2080802;28;20227;-75
2021/01/26 02:08:39;;;;;;;52.28;30.25;;;;;;;-1.16;100.00;97973.66;2080784;28;20693;-74
2021/01/26 02:09:41;;;;;;;45.35;28.15;;;;;;;-1.04;100.00;97970.09;2073680;28;20580;-74
2021/01/26 02:10:43;;;;;;;50.05;28.60;;;;;;;-1.04;100.00;97975.31;2072659;28;20706;-75
2021/01/26 02:11:45;;;;;;;47.03;28.15;;;;;;;-1.13;100.00;97972.34;2079519;28;20253;-73
2021/01/26 02:12:47;;;;;;;46.58;27.80;;;;;;;-1.05;100.00;97984.22;2072760;28;20224;-73
2021/01/26 02:13:48;;;;;;;49.90;30.10;;;;;;;-1.05;100.00;97974.53;2078469;28;20231;-73
2021/01/26 02:14:52;;;;;;;46.43;27.63;;;;;;;-1.08;100.00;97979.47;2081568;28;20219;-73
2021/01/26 02:15:56;;;;;;;49.80;28.45;;;;;;;-1.07;100.00;97974.00;2081015;28;20601;-74
2021/01/26 02:17:05;;;;;;;45.50;28.85;;;;;;;-1.08;100.00;97980.28;2080435;28;20235;-73
2021/01/26 02:18:29;;;;;;;44.13;28.38;;;;;;;-1.11;100.00;97975.53;2080938;28;20765;-73
2021/01/26 02:20:01;;;;;;;47.40;27.83;;;;;;;-1.02;100.00;97986.34;2079823;28;20357;-73
2021/01/26 02:21:33;;;;;;;51.25;29.25;;;;;;;-0.95;100.00;97981.72;2080465;28;20307;-72
2021/01/26 02:23:15;;;;;;;47.75;27.33;;;;;;;-0.99;100.00;97980.63;2080858;28;20284;-74
2021/01/26 02:24:50;;;;;;;46.47;27.92;;;;;;;-1.00;100.00;97979.81;2078893;28;20267;-73
2021/01/26 02:26:26;;;;;;;48.22;28.15;;;;;;;-0.94;100.00;97986.69;2076483;28;20249;-72
2021/01/26 02:28:18;;;;;;;44.53;26.95;;;;;;;-0.98;100.00;97985.59;2080141;28;20307;-73
2021/01/26 02:29:22;;;;;;;44.58;27.92;;;;;;;-0.95;100.00;97990.38;2047276;28;20236;-73
2021/01/26 02:30:28;;;;;;;48.67;27.77;;;;;;;-0.91;100.00;97977.56;2039508;28;20690;-73
2021/01/26 02:32:01;;;;;;;43.53;27.08;;;;;;;-0.99;100.00;97983.22;2045371;28;20246;-73
2021/01/26 02:33:53;;;;;;;39.55;27.17;;;;;;;-0.97;100.00;97981.16;2080123;28;20293;-72
2021/01/26 02:35:14;;;;;;;42.30;28.88;;;;;;;-1.04;100.00;97980.56;2080112;28;20230;-73
2021/01/26 02:36:50;;;;;;;40.90;27.88;;;;;;;-0.98;100.00;97990.84;2080106;28;20223;-73
2021/01/26 02:38:25;;;;;;;48.00;28.20;;;;;;;-0.93;100.00;97990.09;2075973;28;20220;-73
2021/01/26 02:39:35;;;;;;;44.30;26.58;;;;;;;-0.88;100.00;98001.41;2092240;28;20226;-73
2021/01/26 02:40:40;;;;;;;49.03;30.02;;;;;;;-0.94;100.00;97978.84;2087335;28;20306;-73
2021/01/26 02:41:46;;;;;;;39.92;28.33;;;;;;;-0.89;100.00;97988.56;2073310;28;20228;-73
2021/01/26 02:42:53;;;;;;;46.30;29.20;;;;;;;-0.91;100.00;97985.41;2096263;28;20643;-73
2021/01/26 02:44:07;;;;;;;47.10;28.60;;;;;;;-1.05;100.00;97966.69;2085021;28;20310;-72
2021/01/26 02:45:18;;;;;;;41.70;27.50;;;;;;;-0.99;100.00;97970.94;2080115;28;20227;-73
2021/01/26 02:46:28;;;;;;;44.78;27.55;;;;;;;-0.92;100.00;97978.59;2080388;28;20640;-73
2021/01/26 02:47:39;;;;;;;45.40;28.27;;;;;;;-0.95;100.00;97973.88;2072977;28;20612;-73
2021/01/26 02:48:50;;;;;;;50.17;28.08;;;;;;;-0.94;100.00;97983.28;2078168;28;20235;-74
2021/01/26 02:49:53;;;;;;;42.22;28.05;;;;;;;-0.90;100.00;97981.75;2081040;28;20263;-73
2021/01/26 02:51:01;;;;;;;48.83;28.92;;;;;;;-0.91;100.00;97990.66;2080738;28;20231;-73
2021/01/26 02:52:05;;;;;;;43.58;27.45;;;;;;;-1.06;100.00;97977.41;2080243;28;20239;-73
2021/01/26 02:53:11;;;;;;;44.28;29.25;;;;;;;-0.92;100.00;97992.47;2080376;28;20268;-73
2021/01/26 02:54:18;;;;;;;46.42;28.92;;;;;;;-1.02;100.00;97975.88;2079647;28;20254;-72
2021/01/26 02:55:27;;;;;;;51.72;29.30;;;;;;;-0.98;100.00;97985.59;2080334;28;20223;-72
2021/01/26 02:56:33;;;;;;;56.80;30.80;;;;;;;-1.04;100.00;97983.19;2079886;28;20671;-73
2021/01/26 02:57:40;;;;;;;47.88;30.10;;;;;;;-0.98;100.00;97990.03;2079938;28;20219;-72
2021/01/26 02:58:45;;;;;;;47.63;30.73;;;;;;;-1.06;100.00;97972.16;2079935;28;20315;-73
2021/01/26 02:59:51;;;;;;;47.05;29.70;;;;;;;-0.97;100.00;98000.25;2080147;28;20223;-72
2021/01/26 03:00:55;;;;;;;49.63;30.63;;;;;;;-0.98;100.00;97995.28;2077988;28;20354;-75
2021/01/26 03:02:00;;;;;;;54.90;31.27;;;;;;;-1.03;100.00;97982.16;2080991;28;20281;-73
2021/01/26 03:03:05;;;;;;;54.55;32.45;;;;;;;-1.00;100.00;97986.91;2081046;28;20231;-73
2021/01/26 03:04:08;;;;;;;56.08;31.90;;;;;;;-1.02;100.00;97994.22;2081154;28;20731;-73
2021/01/26 03:05:15;;;;;;;49.92;31.50;;;;;;;-1.00;100.00;97994.75;2079787;28;20712;-73
2021/01/26 03:06:18;;;;;;;52.92;32.95;;;;;;;-0.99;100.00;97991.09;2080094;28;20711;-74
2021/01/26 03:07:22;;;;;;;54.45;32.55;;;;;;;-0.96;100.00;97998.44;2080270;28;20790;-71
2021/01/26 03:08:27;;;;;;;57.53;33.47;;;;;;;-1.12;100.00;97978.41;2080626;28;20274;-73
2021/01/26 03:09:30;;;;;;;62.88;34.55;;;;;;;-1.08;100.00;97989.94;2080071;28;20709;-73
2021/01/26 03:10:38;;;;;;;54.50;33.47;;;;;;;-1.07;100.00;97991.53;2080220;28;20224;-72
2021/01/26 03:11:42;;;;;;;56.25;32.47;;;;;;;-1.07;100.00;97996.75;2080478;28;20306;-72
2021/01/26 03:12:47;;;;;;;54.42;34.10;;;;;;;-1.10;100.00;97994.66;2080781;28;20283;-72
2021/01/26 03:13:52;;;;;;;55.25;34.00;;;;;;;-1.15;100.00;97990.13;2080017;28;20311;-73
2021/01/26 03:14:57;;;;;;;51.15;33.20;;;;;;;-1.14;100.00;98010.81;2079780;28;20625;-73
2021/01/26 03:16:01;;;;;;;55.35;33.28;;;;;;;-1.17;100.00;98006.09;2072530;28;20243;-72
2021/01/26 03:17:13;;;;;;;59.33;34.53;;;;;;;-1.11;100.00;98006.94;2080271;28;20223;-72
2021/01/26 03:18:22;;;;;;;61.25;33.88;;;;;;;-1.18;100.00;98006.34;2080592;28;20215;-73
2021/01/26 03:19:27;;;;;;;57.80;34.20;;;;;;;-1.17;100.00;98013.16;2080539;28;20227;-72
2021/01/26 03:20:33;;;;;;;65.88;34.30;;;;;;;-1.17;100.00;98019.19;2080878;28;20230;-72
2021/01/26 03:21:35;;;;;;;59.83;35.47;;;;;;;-1.16;100.00;98012.13;2080113;28;20219;-73
2021/01/26 03:22:37;;;;;;;58.95;35.03;;;;;;;-1.21;100.00;98005.03;2079939;28;20705;-73
2021/01/26 03:23:42;;;;;;;63.97;35.63;;;;;;;-1.22;100.00;98011.25;2079832;28;20654;-73
2021/01/26 03:24:44;;;;;;;65.97;35.72;;;;;;;-1.25;100.00;98019.63;2080863;28;20219;-73
2021/01/26 03:25:49;;;;;;;64.80;35.72;;;;;;;-1.36;100.00;97993.59;2080794;28;20684;-73
2021/01/26 03:26:51;;;;;;;66.38;36.50;;;;;;;-1.23;100.00;98016.75;2081107;28;20227;-73
2021/01/26 03:27:54;;;;;;;66.13;37.75;;;;;;;-1.14;100.00;98018.69;2080597;28;20227;-73
2021/01/26 03:28:57;;;;;;;70.07;37.75;;;;;;;-1.17;100.00;98018.38;2080612;28;20227;-72
2021/01/26 03:29:59;;;;;;;69.32;37.55;;;;;;;-1.17;100.00;98021.78;2080729;28;20357;-73
2021/01/26 03:31:00;;;;;;;63.90;37.15;;;;;;;-1.16;100.00;98012.13;2080784;28;20666;-73
2021/01/26 03:32:04;;;;;;;66.75;37.67;;;;;;;-1.12;100.00;98020.28;2080859;28;20253;-73
2021/01/26 03:33:09;;;;;;;72.47;38.28;;;;;;;-1.28;100.00;98004.41;2080648;28;20307;-73
2021/01/26 03:34:10;;;;;;;68.07;37.08;;;;;;;-1.14;100.00;98023.91;2080265;28;20639;-72
2021/01/26 03:35:13;;;;;;;64.03;36.50;;;;;;;-1.17;100.00;98013.94;2080662;28;20301;-73
2021/01/26 03:36:14;;;;;;;62.10;36.50;;;;;;;-1.20;100.00;98017.06;2080677;28;20816;-73
2021/01/26 03:37:16;;;;;;;63.92;36.45;;;;;;;-1.21;100.00;98018.09;2080786;28;20619;-72
2021/01/26 03:38:20;;;;;;;61.33;35.50;;;;;;;-1.17;100.00;98032.25;2080639;28;20314;-73
2021/01/26 03:39:21;;;;;;;62.90;37.53;;;;;;;-1.17;100.00;98027.03;2080857;28;20242;-73
2021/01/26 03:40:22;;;;;;;66.35;38.63;;;;;;;-1.22;100.00;98018.31;2079353;28;20632;-74
2021/01/26 03:41:24;;;;;;;63.87;36.20;;;;;;;-1.18;100.00;98014.97;2079914;28;20277;-73
2021/01/26 03:42:26;;;;;;;64.45;35.75;;;;;;;-1.16;100.00;98041.69;2080697;28;20254;-73
2021/01/26 03:43:28;;;;;;;69.85;37.35;;;;;;;-1.16;100.00;98026.00;2080871;28;20270;-74
2021/01/26 03:44:29;;;;;;;63.47;35.13;;;;;;;-1.16;100.00;98026.00;2080778;28;20307;-73
2021/01/26 03:45:30;;;;;;;64.53;37.00;;;;;;;-1.18;100.00;98025.44;2080748;28;20220;-73
2021/01/26 03:46:44;;;;;;;62.25;34.50;;;;;;;-1.24;100.00;98023.00;2080736;28;20252;-73
2021/01/26 03:47:56;;;;;;;68.28;37.45;;;;;;;-1.26;100.00;98030.31;2079669;28;20237;-74
2021/01/26 03:49:10;;;;;;;63.00;35.92;;;;;;;-1.25;100.00;98027.47;2079480;28;20231;-74
2021/01/26 03:50:32;;;;;;;66.68;36.78;;;;;;;-1.33;100.00;98032.34;2080448;28;20233;-74
2021/01/26 03:51:42;;;;;;;61.88;34.90;;;;;;;-1.36;100.00;98017.13;2079475;28;20310;-72
2021/01/26 03:52:58;;;;;;;59.03;35.22;;;;;;;-1.36;100.00;98030.22;2072624;28;20235;-72
2021/01/26 03:54:09;;;;;;;60.58;35.35;;;;;;;-1.42;100.00;98024.91;2081348;28;20218;-72
2021/01/26 03:55:16;;;;;;;59.42;33.13;;;;;;;-1.48;100.00;98025.09;2084249;28;20226;-72
2021/01/26 03:56:21;;;;;;;61.25;32.33;;;;;;;-1.37;100.00;98029.44;2080610;28;20235;-72
2021/01/26 03:57:44;;;;;;;60.28;34.33;;;;;;;-1.35;100.00;98040.44;2080459;28;20281;-72
2021/01/26 03:58:54;;;;;;;59.85;32.70;;;;;;;-1.39;100.00;98028.88;2071760;28;20223;-72
2021/01/26 04:00:08;;;;;;;57.35;32.72;;;;;;;-1.35;100.00;98026.56;2071977;28;20227;-72
2021/01/26 04:01:14;;;;;;;56.03;32.55;;;;;;;-1.29;100.00;98033.44;2078180;28;20742;-72
2021/01/26 04:02:19;;;;;;;62.85;34.50;;;;;;;-1.33;100.00;98035.75;2079693;28;20223;-72
2021/01/26 04:03:27;;;;;;;56.47;33.53;;;;;;;-1.35;100.00;98032.59;2079693;28;20243;-73
2021/01/26 04:04:34;;;;;;;60.85;33.67;;;;;;;-1.33;100.00;98029.72;2079536;28;20231;-72
2021/01/26 04:05:38;;;;;;;55.88;32.75;;;;;;;-1.32;100.00;98028.69;2079940;28;20231;-73
2021/01/26 04:06:46;;;;;;;57.85;33.00;;;;;;;-1.35;100.00;98027.34;2080083;28;20223;-73
2021/01/26 04:07:49;;;;;;;61.13;33.60;;;;;;;-1.38;100.00;98033.09;2080593;28;20225;-72
2021/01/26 04:08:53;;;;;;;54.28;32.53;;;;;;;-1.36;100.00;98032.84;2079622;28;20302;-72
2021/01/26 04:09:57;;;;;;;55.20;34.03;;;;;;;-1.33;100.00;98029.72;2065217;28;20239;-72
2021/01/26 04:11:09;;;;;;;59.95;33.85;;;;;;;-1.44;100.00;98016.53;2077759;28;20219;-73
2021/01/26 04:12:13;;;;;;;56.17;32.80;;;;;;;-1.46;100.00;98012.56;2080193;28;20298;-73
2021/01/26 04:13:17;;;;;;;58.80;33.33;;;;;;;-1.46;100.00;98020.44;2079554;28;20230;-73
2021/01/26 04:14:21;;;;;;;58.63;34.75;;;;;;;-1.31;100.00;98028.44;2072030;28;20259;-72
2021/01/26 04:15:25;;;;;;;57.85;33.40;;;;;;;-1.25;100.00;98027.47;2079508;28;20222;-74
2021/01/26 04:16:31;;;;;;;58.70;34.63;;;;;;;-1.25;100.00;98034.53;2079559;28;20284;-72
2021/01/26 04:17:34;;;;;;;59.25;33.72;;;;;;;-1.32;100.00;98026.06;2079602;28;20261;-73
2021/01/26 04:18:38;;;;;;;62.08;35.33;;;;;;;-1.31;100.00;98033.66;2071830;28;20239;-72
2021/01/26 04:19:42;;;;;;;49.72;33.40;;;;;;;-1.31;100.00;98032.88;2079256;28;20238;-73
2021/01/26 04:20:43;;;;;;;59.13;32.35;;;;;;;-1.23;100.00;98043.69;2080480;28;20284;-73
2021/01/26 04:21:46;;;;;;;55.83;32.27;;;;;;;-1.25;100.00;98034.53;2079735;28;20227;-74
2021/01/26 04:22:52;;;;;;;58.78;34.15;;;;;;;-1.22;100.00;98036.63;2079642;28;20791;-72
2021/01/26 04:23:54;;;;;;;58.53;34.35;;;;;;;-1.22;100.00;98041.88;2079414;28;20227;-74
2021/01/26 04:24:55;;;;;;;63.08;35.95;;;;;;;-1.26;100.00;98035.56;2080299;28;20238;-73
2021/01/26 04:26:05;;;;;;;57.83;34.17;;;;;;;-1.26;100.00;98033.72;2080441;28;20309;-73
2021/01/26 04:27:11;;;;;;;60.25;34.88;;;;;;;-1.23;100.00;98035.06;2080294;28;20239;-73
2021/01/26 04:28:13;;;;;;;57.03;33.42;;;;;;;-1.16;100.00;98048.75;2079923;28;20234;-73
2021/01/26 04:29:16;;;;;;;65.55;35.65;;;;;;;-1.14;100.00;98050.09;2079544;28;20216;-72
2021/01/26 04:30:17;;;;;;;63.55;34.85;;;;;;;-1.15;100.00;98053.75;2079486;28;20223;-72
2021/01/26 04:31:21;;;;;;;58.22;33.10;;;;;;;-1.16;100.00;98041.69;2079523;28;20681;-72
2021/01/26 04:32:23;;;;;;;66.90;36.88;;;;;;;-1.19;100.00;98050.03;2079114;28;20258;-73
2021/01/26 04:33:24;;;;;;;66.63;36.05;;;;;;;-1.19;100.00;98051.88;2071336;28;20639;-73
2021/01/26 04:34:25;;;;;;;65.68;35.50;;;;;;;-1.18;100.00;98048.22;2079625;28;20310;-72
2021/01/26 04:35:26;;;;;;;61.17;35.67;;;;;;;-1.24;100.00;98041.34;2071282;28;20223;-73
2021/01/26 04:36:28;;;;;;;67.97;36.67;;;;;;;-1.25;100.00;98051.00;2087642;28;20305;-72
2021/01/26 04:37:29;;;;;;;73.72;37.45;;;;;;;-1.31;100.00;98044.13;2087203;28;20280;-74
2021/01/26 04:38:30;;;;;;;71.93;37.60;;;;;;;-1.26;100.00;98052.03;2080443;28;20219;-72
2021/01/26 04:39:31;;;;;;;66.55;36.40;;;;;;;-1.20;100.00;98058.94;2080313;28;20602;-74
2021/01/26 04:40:33;;;;;;;64.23;35.40;;;;;;;-1.23;100.00;98056.00;2080209;28;20219;-75
2021/01/26 04:41:40;;;;;;;69.78;36.15;;;;;;;-1.20;100.00;98061.56;2080187;28;20665;-71
2021/01/26 04:42:42;;;;;;;72.25;37.10;;;;;;;-1.23;100.00;98051.56;2080033;28;20666;-72
2021/01/26 04:44:00;;;;;;;66.30;37.20;;;;;;;-1.19;100.00;98057.91;2080254;28;20239;-72
2021/01/26 04:45:12;;;;;;;66.28;36.72;;;;;;;-1.20;100.00;98061.56;2079242;28;20225;-72
2021/01/26 04:46:17;;;;;;;74.13;37.20;;;;;;;-1.22;100.00;98060.19;2079325;28;20255;-72
2021/01/26 04:47:21;;;;;;;67.65;37.78;;;;;;;-1.21;100.00;98059.97;2079364;28;20227;-72
2021/01/26 04:48:27;;;;;;;67.57;38.28;;;;;;;-1.24;100.00;98055.19;2079330;28;20298;-74
2021/01/26 04:49:32;;;;;;;74.65;38.92;;;;;;;-1.26;100.00;98049.44;2080346;28;20320;-75
2021/01/26 04:50:38;;;;;;;65.20;36.67;;;;;;;-1.21;100.00;98070.44;2079630;28;20303;-73
2021/01/26 04:51:48;;;;;;;65.88;37.17;;;;;;;-1.22;100.00;98054.97;2065491;28;20228;-74
2021/01/26 04:53:06;;;;;;;64.88;36.53;;;;;;;-1.21;100.00;98065.19;2077689;28;20615;-74
2021/01/26 04:54:29;;;;;;;69.50;37.78;;;;;;;-1.27;100.00;98063.56;2095769;28;20225;-74
2021/01/26 04:55:41;;;;;;;68.32;37.15;;;;;;;-1.23;100.00;98069.06;2084058;28;20215;-74
2021/01/26 04:56:50;;;;;;;69.18;36.80;;;;;;;-1.14;100.00;98073.63;2079394;28;20231;-74